createdAt,value
2022-09-20T00:04:59.551Z,99.90
2022-09-20T00:10:01.459Z,99.90
2022-09-20T00:15:03.666Z,99.90
2022-09-20T00:20:05.786Z,99.90
2022-09-20T00:25:08.578Z,99.90
2022-09-20T00:30:10.854Z,99.90
2022-09-20T00:35:12.572Z,99.90
2022-09-20T00:40:17.965Z,99.90
2022-09-20T00:45:21.117Z,99.90
2022-09-20T00:50:46.028Z,99.90
2022-09-20T00:55:50.028Z,99.90
2022-09-20T01:00:53.979Z,99.90
2022-09-20T01:05:56.249Z,99.90
2022-09-20T01:10:58.234Z,99.90
2022-09-20T01:16:02.548Z,99.90
2022-09-20T01:21:06.243Z,99.90
2022-09-20T01:26:29.211Z,99.90
2022-09-20T01:31:36.335Z,99.90
2022-09-20T01:37:06.838Z,99.90
2022-09-20T01:42:12.082Z,99.90
2022-09-20T01:47:38.461Z,99.90
2022-09-20T01:52:48.854Z,99.90
2022-09-20T01:58:33.759Z,99.90
2022-09-20T02:03:54.489Z,99.90
2022-09-20T02:09:24.194Z,99.90
2022-09-20T02:14:50.031Z,99.90
2022-09-20T02:20:08.469Z,99.90
2022-09-20T02:25:53.001Z,99.90
2022-09-20T02:31:20.225Z,99.90
2022-09-20T02:36:31.152Z,99.90
2022-09-20T02:42:12.840Z,99.90
2022-09-20T02:47:27.987Z,99.90
2022-09-20T02:52:54.287Z,99.90
2022-09-20T02:58:21.351Z,99.90
2022-09-20T03:03:42.916Z,99.90
2022-09-20T03:09:08.453Z,99.90
2022-09-20T03:14:23.126Z,99.90
2022-09-20T03:19:43.446Z,99.90
2022-09-20T03:25:22.879Z,99.90
2022-09-20T03:30:46.477Z,99.90
2022-09-20T03:35:50.974Z,99.90
2022-09-20T03:41:17.299Z,99.90
2022-09-20T03:46:29.006Z,99.90
2022-09-20T03:51:48.780Z,99.90
2022-09-20T03:57:11.626Z,99.90
2022-09-20T04:02:41.024Z,99.90
2022-09-20T04:08:07.858Z,99.90
2022-09-20T04:13:21.609Z,99.90
2022-09-20T04:18:45.959Z,99.90
2022-09-20T04:23:52.312Z,99.90
2022-09-20T04:28:58.450Z,99.90
2022-09-20T04:34:02.278Z,99.90
2022-09-20T04:39:32.561Z,99.90
2022-09-20T04:44:53.873Z,99.90
2022-09-20T04:50:11.516Z,99.90
2022-09-20T04:55:31.854Z,99.90
2022-09-20T05:00:43.376Z,99.90
2022-09-20T05:06:14.346Z,99.90
2022-09-20T05:11:27.846Z,99.90
2022-09-20T05:17:07.987Z,99.90
2022-09-20T05:22:48.155Z,99.90
2022-09-20T05:28:08.802Z,99.90
2022-09-20T05:33:22.588Z,99.90
2022-09-20T05:38:45.648Z,99.90
2022-09-20T05:44:01.675Z,99.90
2022-09-20T05:49:37.049Z,99.90
2022-09-20T05:55:01.288Z,99.90
2022-09-20T06:00:15.823Z,99.90
2022-09-20T06:05:52.956Z,99.90
2022-09-20T06:11:23.233Z,99.90
2022-09-20T06:16:40.483Z,99.90
2022-09-20T06:21:53.483Z,99.90
2022-09-20T06:26:58.848Z,99.90
2022-09-20T06:32:01.063Z,99.90
2022-09-20T06:37:36.696Z,99.60
2022-09-20T06:42:39.128Z,95.30
2022-09-20T06:47:41.018Z,99.10
2022-09-20T06:52:45.031Z,99.90
2022-09-20T06:57:47.237Z,99.90
2022-09-20T07:02:48.928Z,99.90
2022-09-20T07:07:50.661Z,99.90
2022-09-20T07:12:55.268Z,99.90
2022-09-20T07:17:57.029Z,99.90
2022-09-20T07:22:59.331Z,99.90
2022-09-20T07:28:01.391Z,99.90
2022-09-20T07:33:03.092Z,99.90
2022-09-20T07:38:07.794Z,99.90
2022-09-20T07:43:09.512Z,99.90
2022-09-20T07:48:11.198Z,99.90
2022-09-20T07:53:12.891Z,99.90
2022-09-20T07:58:14.577Z,99.90
2022-09-20T08:03:16.415Z,99.90
2022-09-20T08:08:19.047Z,99.90
2022-09-20T08:18:48.792Z,99.90
2022-09-20T08:23:50.799Z,99.90
2022-09-20T08:28:55.415Z,99.90
2022-09-20T08:33:58.942Z,99.90
2022-09-20T08:44:35.049Z,99.90
2022-09-20T08:49:38.061Z,99.80
2022-09-20T08:54:43.290Z,95.10
2022-09-20T08:59:45.242Z,95.80
2022-09-20T09:04:49.810Z,96.60
2022-09-20T09:09:54.525Z,97.90
2022-09-20T09:15:19.562Z,98.60
2022-09-20T09:20:23.489Z,98.90
2022-09-20T09:25:34.192Z,99.20
2022-09-20T09:30:38.463Z,98.90
2022-09-20T09:35:40.120Z,97.30
2022-09-20T09:40:53.826Z,98.40
2022-09-20T09:46:17.419Z,96.30
2022-09-20T09:51:23.103Z,94.30
2022-09-20T09:56:51.110Z,95.60
2022-09-20T10:02:15.953Z,95.60
2022-09-20T10:07:24.841Z,94.90
2022-09-20T10:12:49.015Z,95.10
2022-09-20T10:17:58.580Z,96.70
2022-09-20T10:23:51.377Z,97.90
2022-09-20T10:29:08.419Z,98.80
2022-09-20T10:34:46.048Z,98.30
2022-09-20T10:40:17.820Z,97.40
2022-09-20T10:51:52.937Z,93.00
2022-09-20T10:57:18.217Z,87.30
2022-09-20T11:02:46.468Z,90.50
2022-09-20T11:07:59.031Z,91.20
2022-09-20T11:13:06.254Z,92.70
2022-09-20T11:18:20.905Z,90.90
2022-09-20T11:23:37.382Z,90.50
2022-09-20T11:28:49.855Z,82.30
2022-09-20T11:33:57.733Z,85.90
2022-09-20T11:39:05.912Z,85.10
2022-09-20T11:44:14.956Z,82.00
2022-09-20T11:49:23.786Z,77.80
2022-09-20T11:55:06.875Z,81.40
2022-09-20T12:00:10.157Z,78.90
2022-09-20T12:05:38.013Z,79.30
2022-09-20T12:10:40.429Z,81.30
2022-09-20T12:15:42.601Z,76.50
2022-09-20T12:20:44.992Z,77.80
2022-09-20T12:26:03.139Z,75.70
2022-09-20T12:31:37.990Z,80.20
2022-09-20T12:36:56.241Z,79.90
2022-09-20T12:42:02.678Z,78.70
2022-09-20T12:47:09.918Z,75.90
2022-09-20T12:53:02.409Z,77.80
2022-09-20T12:58:10.994Z,76.00
2022-09-20T13:03:16.705Z,80.70
2022-09-20T13:08:25.661Z,90.00
2022-09-20T13:13:41.475Z,93.10
2022-09-20T13:18:43.880Z,94.10
2022-09-20T13:23:50.687Z,94.10
2022-09-20T13:28:55.228Z,96.00
2022-09-20T13:34:13.939Z,97.70
2022-09-20T13:39:36.095Z,95.80
2022-09-20T13:44:38.698Z,95.30
2022-09-20T13:49:43.109Z,93.90
2022-09-20T13:54:44.815Z,91.50
2022-09-20T13:59:47.086Z,86.50
2022-09-20T14:04:50.464Z,84.90
2022-09-20T14:09:52.610Z,83.00
2022-09-20T14:14:54.981Z,83.10
2022-09-20T14:19:57.594Z,92.90
2022-09-20T14:25:27.783Z,93.90
2022-09-20T14:30:36.870Z,91.00
2022-09-20T14:35:46.151Z,90.90
2022-09-20T14:40:49.171Z,90.20
2022-09-20T14:46:01.234Z,85.50
2022-09-20T14:51:21.307Z,83.90
2022-09-20T14:56:39.457Z,86.80
2022-09-20T15:01:44.980Z,86.20
2022-09-20T15:06:46.826Z,87.00
2022-09-20T15:12:00.381Z,90.80
2022-09-20T15:17:02.248Z,90.20
2022-09-20T15:22:04.144Z,91.10
2022-09-20T15:27:06.693Z,89.40
2022-09-20T15:32:10.555Z,90.10
2022-09-20T15:37:12.240Z,90.20
2022-09-20T15:42:13.935Z,91.40
2022-09-20T15:47:16.230Z,91.70
2022-09-20T15:52:24.317Z,93.00
2022-09-20T15:57:26.969Z,92.50
2022-09-20T16:02:29.239Z,92.50
2022-09-20T16:07:31.902Z,93.30
2022-09-20T16:12:33.631Z,94.60
2022-09-20T16:17:53.994Z,92.40
2022-09-20T16:22:55.827Z,93.00
2022-09-20T16:27:58.236Z,92.60
2022-09-20T16:33:05.669Z,92.00
2022-09-20T16:38:07.467Z,92.40
2022-09-20T16:43:09.306Z,92.00
2022-09-20T16:48:11.530Z,93.40
2022-09-20T16:53:13.298Z,93.20
2022-09-20T16:58:15.545Z,93.00
2022-09-20T17:03:17.389Z,94.20
2022-09-20T17:08:19.061Z,95.70
2022-09-20T17:13:20.870Z,97.50
2022-09-20T17:18:22.570Z,97.40
2022-09-20T17:23:24.261Z,98.40
2022-09-20T17:28:26.094Z,99.00
2022-09-20T17:33:30.261Z,99.90
2022-09-20T17:38:33.773Z,99.20
2022-09-20T17:43:36.806Z,99.70
2022-09-20T17:48:39.403Z,99.90
2022-09-20T17:53:41.116Z,99.90
2022-09-20T17:58:43.040Z,99.90
2022-09-20T18:03:46.550Z,99.90
2022-09-20T18:09:02.669Z,99.90
2022-09-20T18:14:06.823Z,99.90
2022-09-20T18:19:09.013Z,99.90
2022-09-20T18:24:12.069Z,99.90
2022-09-20T18:29:17.767Z,99.90
2022-09-20T18:34:22.749Z,99.90
2022-09-20T18:39:29.340Z,99.90
2022-09-20T18:44:33.915Z,99.90
2022-09-20T18:49:35.917Z,99.90
2022-09-20T18:54:40.947Z,99.90
2022-09-20T18:59:53.864Z,99.90
2022-09-20T19:05:06.737Z,99.90
2022-09-20T19:10:41.468Z,99.90
2022-09-20T19:16:01.317Z,99.90
2022-09-20T19:21:27.523Z,99.90
2022-09-20T19:26:31.157Z,99.90
2022-09-20T19:31:34.373Z,99.90
2022-09-20T19:36:53.885Z,99.90
2022-09-20T19:42:25.877Z,99.90
2022-09-20T19:47:54.843Z,99.90
2022-09-20T19:52:56.790Z,99.90
2022-09-20T19:57:59.072Z,99.90
2022-09-20T20:03:01.222Z,99.90
2022-09-20T20:08:30.694Z,99.90
2022-09-20T20:14:14.698Z,99.90
2022-09-20T20:19:37.549Z,99.90
2022-09-20T20:24:52.157Z,99.90
2022-09-20T20:29:56.977Z,99.90
2022-09-20T20:34:58.664Z,99.90
2022-09-20T20:40:00.568Z,99.90
2022-09-20T20:45:02.290Z,99.90
2022-09-20T20:50:04.848Z,99.90
2022-09-20T20:55:06.890Z,99.90
2022-09-20T21:00:09.247Z,99.90
2022-09-20T21:05:10.937Z,99.90
2022-09-20T21:10:13.546Z,99.90
2022-09-20T21:15:15.297Z,99.90
2022-09-20T21:20:17.048Z,99.90
2022-09-20T21:25:18.770Z,99.90
2022-09-20T21:30:20.535Z,99.90
2022-09-20T21:35:24.037Z,99.90
2022-09-20T21:40:26.856Z,99.90
2022-09-20T21:45:29.517Z,99.90
2022-09-20T21:50:31.206Z,99.90
2022-09-20T21:55:34.143Z,99.90
2022-09-20T22:00:35.878Z,99.90
2022-09-20T22:05:37.628Z,99.90
2022-09-20T22:10:39.372Z,99.90
2022-09-20T22:15:42.589Z,99.90
2022-09-20T22:20:45.532Z,99.90
2022-09-20T22:25:47.221Z,99.90
2022-09-20T22:30:49.015Z,99.90
2022-09-20T22:35:50.759Z,99.90
2022-09-20T22:40:57.211Z,99.90
2022-09-20T22:46:07.803Z,99.90
2022-09-20T22:51:15.276Z,99.90
2022-09-20T22:56:21.149Z,99.90
2022-09-20T23:01:29.270Z,99.90
2022-09-20T23:06:54.772Z,99.90
2022-09-20T23:11:56.609Z,99.90
2022-09-20T23:16:58.320Z,99.90
2022-09-20T23:22:00.023Z,99.90
2022-09-20T23:27:01.737Z,99.90
2022-09-20T23:32:03.515Z,99.90
2022-09-20T23:37:06.767Z,99.90
2022-09-20T23:42:08.507Z,99.90
2022-09-20T23:47:10.259Z,99.90
2022-09-20T23:52:11.954Z,99.90
2022-09-20T23:57:15.190Z,99.90
